sensor_id;sensor_type;location;lat;lon;timestamp;P1;durP1;ratioP1;P2;durP2;ratioP2
22705;SDS011;11520;51.198;4.468;2023-06-05T00:01:43;5.07;;;3.00;;
22705;SDS011;11520;51.198;4.468;2023-06-05T00:04:11;5.65;;;3.08;;
22705;SDS011;11520;51.198;4.468;2023-06-05T00:06:40;8.77;;;3.38;;
22705;SDS011;11520;51.198;4.468;2023-06-05T00:09:05;6.03;;;3.22;;
22705;SDS011;11520;51.198;4.468;2023-06-05T00:11:31;7.45;;;3.33;;
22705;SDS011;11520;51.198;4.468;2023-06-05T00:13:57;9.93;;;3.92;;
22705;SDS011;11520;51.198;4.468;2023-06-05T00:16:23;5.75;;;3.28;;
22705;SDS011;11520;51.198;4.468;2023-06-05T00:18:48;6.05;;;3.25;;
22705;SDS011;11520;51.198;4.468;2023-06-05T00:21:15;10.38;;;3.42;;
22705;SDS011;11520;51.198;4.468;2023-06-05T00:23:41;5.80;;;3.20;;
22705;SDS011;11520;51.198;4.468;2023-06-05T00:26:07;7.40;;;3.50;;
22705;SDS011;11520;51.198;4.468;2023-06-05T00:28:32;7.03;;;3.10;;
22705;SDS011;11520;51.198;4.468;2023-06-05T00:30:59;7.88;;;3.33;;
22705;SDS011;11520;51.198;4.468;2023-06-05T00:33:26;7.72;;;3.72;;
22705;SDS011;11520;51.198;4.468;2023-06-05T00:35:53;11.52;;;3.38;;
22705;SDS011;11520;51.198;4.468;2023-06-05T00:38:19;7.25;;;3.67;;
22705;SDS011;11520;51.198;4.468;2023-06-05T00:40:45;5.05;;;3.22;;
22705;SDS011;11520;51.198;4.468;2023-06-05T00:43:11;6.95;;;3.03;;
22705;SDS011;11520;51.198;4.468;2023-06-05T00:45:36;4.13;;;3.20;;
22705;SDS011;11520;51.198;4.468;2023-06-05T00:48:02;5.03;;;3.33;;
22705;SDS011;11520;51.198;4.468;2023-06-05T00:50:28;7.65;;;3.67;;
22705;SDS011;11520;51.198;4.468;2023-06-05T00:52:57;10.27;;;3.53;;
22705;SDS011;11520;51.198;4.468;2023-06-05T00:55:25;8.48;;;3.53;;
22705;SDS011;11520;51.198;4.468;2023-06-05T00:57:51;4.38;;;3.38;;
22705;SDS011;11520;51.198;4.468;2023-06-05T01:00:16;7.03;;;3.20;;
22705;SDS011;11520;51.198;4.468;2023-06-05T01:02:43;8.82;;;4.13;;
22705;SDS011;11520;51.198;4.468;2023-06-05T01:05:09;8.68;;;4.35;;
22705;SDS011;11520;51.198;4.468;2023-06-05T01:07:35;5.35;;;3.65;;
22705;SDS011;11520;51.198;4.468;2023-06-05T01:10:05;6.97;;;3.78;;
22705;SDS011;11520;51.198;4.468;2023-06-05T01:15:30;8.45;;;3.60;;
22705;SDS011;11520;51.198;4.468;2023-06-05T01:17:59;7.25;;;3.95;;
22705;SDS011;11520;51.198;4.468;2023-06-05T01:20:34;5.93;;;3.40;;
22705;SDS011;11520;51.198;4.468;2023-06-05T01:23:01;9.57;;;4.00;;
22705;SDS011;11520;51.198;4.468;2023-06-05T01:25:31;7.82;;;3.63;;
22705;SDS011;11520;51.198;4.468;2023-06-05T01:27:58;6.60;;;4.30;;
22705;SDS011;11520;51.198;4.468;2023-06-05T01:30:36;8.90;;;4.38;;
22705;SDS011;11520;51.198;4.468;2023-06-05T01:33:13;11.02;;;3.63;;
22705;SDS011;11520;51.198;4.468;2023-06-05T01:35:49;7.85;;;3.80;;
22705;SDS011;11520;51.198;4.468;2023-06-05T01:38:16;7.35;;;4.05;;
22705;SDS011;11520;51.198;4.468;2023-06-05T01:40:43;7.70;;;4.20;;
22705;SDS011;11520;51.198;4.468;2023-06-05T01:43:09;6.50;;;3.38;;
22705;SDS011;11520;51.198;4.468;2023-06-05T01:45:37;8.48;;;4.13;;
22705;SDS011;11520;51.198;4.468;2023-06-05T01:48:06;6.70;;;3.95;;
22705;SDS011;11520;51.198;4.468;2023-06-05T01:50:33;9.45;;;4.07;;
22705;SDS011;11520;51.198;4.468;2023-06-05T01:53:01;5.25;;;3.83;;
22705;SDS011;11520;51.198;4.468;2023-06-05T01:55:27;6.90;;;3.42;;
22705;SDS011;11520;51.198;4.468;2023-06-05T01:57:53;6.13;;;3.50;;
22705;SDS011;11520;51.198;4.468;2023-06-05T02:00:19;5.88;;;3.55;;
22705;SDS011;11520;51.198;4.468;2023-06-05T02:02:45;7.90;;;3.55;;
22705;SDS011;11520;51.198;4.468;2023-06-05T02:05:12;6.25;;;3.88;;
22705;SDS011;11520;51.198;4.468;2023-06-05T02:07:40;9.90;;;3.80;;
22705;SDS011;11520;51.198;4.468;2023-06-05T02:10:07;9.13;;;4.97;;
22705;SDS011;11520;51.198;4.468;2023-06-05T02:12:33;7.90;;;4.30;;
22705;SDS011;11520;51.198;4.468;2023-06-05T02:14:59;9.98;;;4.05;;
22705;SDS011;11520;51.198;4.468;2023-06-05T02:17:25;7.95;;;4.05;;
22705;SDS011;11520;51.198;4.468;2023-06-05T02:19:54;6.15;;;4.20;;
22705;SDS011;11520;51.198;4.468;2023-06-05T02:22:19;8.73;;;4.30;;
22705;SDS011;11520;51.198;4.468;2023-06-05T02:24:45;5.70;;;3.95;;
22705;SDS011;11520;51.198;4.468;2023-06-05T02:27:10;5.15;;;4.30;;
22705;SDS011;11520;51.198;4.468;2023-06-05T02:29:37;7.72;;;4.28;;
22705;SDS011;11520;51.198;4.468;2023-06-05T02:32:04;9.98;;;4.55;;
22705;SDS011;11520;51.198;4.468;2023-06-05T02:34:31;8.70;;;4.80;;
22705;SDS011;11520;51.198;4.468;2023-06-05T02:36:58;7.80;;;4.40;;
22705;SDS011;11520;51.198;4.468;2023-06-05T02:39:24;7.78;;;3.97;;
22705;SDS011;11520;51.198;4.468;2023-06-05T02:41:50;8.68;;;5.15;;
22705;SDS011;11520;51.198;4.468;2023-06-05T02:44:16;7.55;;;4.97;;
22705;SDS011;11520;51.198;4.468;2023-06-05T02:46:42;11.15;;;4.45;;
22705;SDS011;11520;51.198;4.468;2023-06-05T02:49:09;6.47;;;4.13;;
22705;SDS011;11520;51.198;4.468;2023-06-05T02:51:35;7.75;;;4.80;;
22705;SDS011;11520;51.198;4.468;2023-06-05T02:54:00;7.15;;;4.82;;
22705;SDS011;11520;51.198;4.468;2023-06-05T02:56:26;8.10;;;4.93;;
22705;SDS011;11520;51.198;4.468;2023-06-05T02:58:52;6.80;;;4.47;;
22705;SDS011;11520;51.198;4.468;2023-06-05T03:01:18;6.38;;;4.63;;
22705;SDS011;11520;51.198;4.468;2023-06-05T03:03:46;7.45;;;5.00;;
22705;SDS011;11520;51.198;4.468;2023-06-05T03:06:13;6.72;;;4.20;;
22705;SDS011;11520;51.198;4.468;2023-06-05T03:08:42;6.20;;;5.15;;
22705;SDS011;11520;51.198;4.468;2023-06-05T03:11:08;7.32;;;4.88;;
22705;SDS011;11520;51.198;4.468;2023-06-05T03:13:34;8.20;;;4.75;;
22705;SDS011;11520;51.198;4.468;2023-06-05T03:16:00;9.82;;;4.88;;
22705;SDS011;11520;51.198;4.468;2023-06-05T03:18:26;9.57;;;5.22;;
22705;SDS011;11520;51.198;4.468;2023-06-05T03:20:52;6.53;;;4.78;;
22705;SDS011;11520;51.198;4.468;2023-06-05T03:25:49;7.97;;;4.95;;
22705;SDS011;11520;51.198;4.468;2023-06-05T03:28:16;8.32;;;5.10;;
22705;SDS011;11520;51.198;4.468;2023-06-05T03:30:43;7.82;;;5.35;;
22705;SDS011;11520;51.198;4.468;2023-06-05T03:33:09;10.40;;;5.43;;
22705;SDS011;11520;51.198;4.468;2023-06-05T03:35:35;9.77;;;5.00;;
22705;SDS011;11520;51.198;4.468;2023-06-05T03:38:02;5.78;;;5.18;;
22705;SDS011;11520;51.198;4.468;2023-06-05T03:40:28;12.73;;;5.40;;
22705;SDS011;11520;51.198;4.468;2023-06-05T03:42:54;9.23;;;5.57;;
22705;SDS011;11520;51.198;4.468;2023-06-05T03:45:20;9.13;;;5.25;;
22705;SDS011;11520;51.198;4.468;2023-06-05T03:47:47;9.13;;;5.05;;
22705;SDS011;11520;51.198;4.468;2023-06-05T03:50:14;9.80;;;5.53;;
22705;SDS011;11520;51.198;4.468;2023-06-05T03:52:41;8.40;;;5.28;;
22705;SDS011;11520;51.198;4.468;2023-06-05T03:55:07;11.15;;;5.57;;
22705;SDS011;11520;51.198;4.468;2023-06-05T03:57:34;10.88;;;5.82;;
22705;SDS011;11520;51.198;4.468;2023-06-05T04:00:00;8.20;;;5.90;;
22705;SDS011;11520;51.198;4.468;2023-06-05T04:02:25;8.98;;;5.53;;
22705;SDS011;11520;51.198;4.468;2023-06-05T04:04:52;10.00;;;5.35;;
22705;SDS011;11520;51.198;4.468;2023-06-05T04:07:18;8.00;;;5.05;;
22705;SDS011;11520;51.198;4.468;2023-06-05T04:09:43;8.05;;;6.05;;
22705;SDS011;11520;51.198;4.468;2023-06-05T04:12:09;12.18;;;5.72;;
22705;SDS011;11520;51.198;4.468;2023-06-05T04:14:35;11.05;;;6.95;;
22705;SDS011;11520;51.198;4.468;2023-06-05T04:17:02;14.27;;;5.63;;
22705;SDS011;11520;51.198;4.468;2023-06-05T04:19:30;11.88;;;6.20;;
22705;SDS011;11520;51.198;4.468;2023-06-05T04:21:56;8.68;;;5.70;;
22705;SDS011;11520;51.198;4.468;2023-06-05T04:24:22;10.15;;;6.68;;
22705;SDS011;11520;51.198;4.468;2023-06-05T04:26:50;9.27;;;5.68;;
22705;SDS011;11520;51.198;4.468;2023-06-05T04:29:17;9.70;;;5.82;;
22705;SDS011;11520;51.198;4.468;2023-06-05T04:31:45;13.95;;;5.57;;
22705;SDS011;11520;51.198;4.468;2023-06-05T04:34:12;12.52;;;5.80;;
22705;SDS011;11520;51.198;4.468;2023-06-05T04:36:38;13.30;;;5.97;;
22705;SDS011;11520;51.198;4.468;2023-06-05T04:39:05;8.45;;;5.57;;
22705;SDS011;11520;51.198;4.468;2023-06-05T04:41:39;11.57;;;6.95;;
22705;SDS011;11520;51.198;4.468;2023-06-05T04:44:10;8.45;;;5.95;;
22705;SDS011;11520;51.198;4.468;2023-06-05T04:46:37;14.35;;;6.35;;
22705;SDS011;11520;51.198;4.468;2023-06-05T04:49:08;7.80;;;5.03;;
22705;SDS011;11520;51.198;4.468;2023-06-05T04:51:37;8.07;;;5.00;;
22705;SDS011;11520;51.198;4.468;2023-06-05T04:54:03;9.57;;;5.45;;
22705;SDS011;11520;51.198;4.468;2023-06-05T04:56:31;9.07;;;4.95;;
22705;SDS011;11520;51.198;4.468;2023-06-05T04:58:58;6.93;;;4.20;;
22705;SDS011;11520;51.198;4.468;2023-06-05T05:01:24;8.38;;;4.32;;
22705;SDS011;11520;51.198;4.468;2023-06-05T05:03:50;8.43;;;3.90;;
22705;SDS011;11520;51.198;4.468;2023-06-05T05:06:16;10.40;;;4.05;;
22705;SDS011;11520;51.198;4.468;2023-06-05T05:08:43;12.93;;;5.40;;
22705;SDS011;11520;51.198;4.468;2023-06-05T05:11:10;8.55;;;4.05;;
22705;SDS011;11520;51.198;4.468;2023-06-05T05:13:36;7.30;;;4.47;;
22705;SDS011;11520;51.198;4.468;2023-06-05T05:16:01;7.18;;;4.80;;
22705;SDS011;11520;51.198;4.468;2023-06-05T05:18:27;9.25;;;4.57;;
22705;SDS011;11520;51.198;4.468;2023-06-05T05:20:53;9.10;;;5.00;;
22705;SDS011;11520;51.198;4.468;2023-06-05T05:23:19;6.47;;;4.20;;
22705;SDS011;11520;51.198;4.468;2023-06-05T05:25:46;5.25;;;4.00;;
22705;SDS011;11520;51.198;4.468;2023-06-05T05:28:11;9.52;;;4.13;;
22705;SDS011;11520;51.198;4.468;2023-06-05T05:30:37;10.85;;;3.80;;
22705;SDS011;11520;51.198;4.468;2023-06-05T05:33:03;8.93;;;4.65;;
22705;SDS011;11520;51.198;4.468;2023-06-05T05:35:29;5.45;;;3.70;;
22705;SDS011;11520;51.198;4.468;2023-06-05T05:37:55;5.65;;;3.70;;
22705;SDS011;11520;51.198;4.468;2023-06-05T05:40:21;12.27;;;4.40;;
22705;SDS011;11520;51.198;4.468;2023-06-05T05:42:47;9.02;;;4.03;;
22705;SDS011;11520;51.198;4.468;2023-06-05T05:45:12;5.13;;;4.10;;
22705;SDS011;11520;51.198;4.468;2023-06-05T05:47:38;5.40;;;3.88;;
22705;SDS011;11520;51.198;4.468;2023-06-05T05:50:04;4.93;;;3.60;;
22705;SDS011;11520;51.198;4.468;2023-06-05T05:52:30;5.82;;;4.32;;
22705;SDS011;11520;51.198;4.468;2023-06-05T05:54:56;5.38;;;4.00;;
22705;SDS011;11520;51.198;4.468;2023-06-05T05:57:23;9.40;;;4.38;;
22705;SDS011;11520;51.198;4.468;2023-06-05T05:59:49;5.13;;;4.10;;
22705;SDS011;11520;51.198;4.468;2023-06-05T06:02:16;5.63;;;4.20;;
22705;SDS011;11520;51.198;4.468;2023-06-05T06:04:42;5.50;;;4.22;;
22705;SDS011;11520;51.198;4.468;2023-06-05T06:07:11;7.60;;;3.95;;
22705;SDS011;11520;51.198;4.468;2023-06-05T06:09:37;7.35;;;4.22;;
22705;SDS011;11520;51.198;4.468;2023-06-05T06:12:02;5.20;;;4.03;;
22705;SDS011;11520;51.198;4.468;2023-06-05T06:14:31;6.40;;;3.53;;
22705;SDS011;11520;51.198;4.468;2023-06-05T06:16:57;6.28;;;3.80;;
22705;SDS011;11520;51.198;4.468;2023-06-05T06:19:23;7.32;;;4.38;;
22705;SDS011;11520;51.198;4.468;2023-06-05T06:21:50;8.90;;;4.30;;
22705;SDS011;11520;51.198;4.468;2023-06-05T06:24:17;5.00;;;3.65;;
22705;SDS011;11520;51.198;4.468;2023-06-05T06:26:45;5.53;;;3.72;;
22705;SDS011;11520;51.198;4.468;2023-06-05T06:29:13;8.65;;;4.05;;
22705;SDS011;11520;51.198;4.468;2023-06-05T06:31:40;6.50;;;4.10;;
22705;SDS011;11520;51.198;4.468;2023-06-05T06:34:08;6.50;;;3.75;;
22705;SDS011;11520;51.198;4.468;2023-06-05T06:36:35;5.65;;;4.38;;
22705;SDS011;11520;51.198;4.468;2023-06-05T06:39:09;5.88;;;4.28;;
22705;SDS011;11520;51.198;4.468;2023-06-05T06:41:36;4.75;;;3.58;;
22705;SDS011;11520;51.198;4.468;2023-06-05T06:44:03;9.98;;;3.85;;
22705;SDS011;11520;51.198;4.468;2023-06-05T06:46:31;6.40;;;3.78;;
22705;SDS011;11520;51.198;4.468;2023-06-05T06:48:58;4.32;;;3.95;;
22705;SDS011;11520;51.198;4.468;2023-06-05T06:51:24;7.80;;;4.15;;
22705;SDS011;11520;51.198;4.468;2023-06-05T06:53:50;6.10;;;3.80;;
22705;SDS011;11520;51.198;4.468;2023-06-05T06:56:16;7.60;;;3.88;;
22705;SDS011;11520;51.198;4.468;2023-06-05T06:58:43;5.43;;;3.83;;
22705;SDS011;11520;51.198;4.468;2023-06-05T07:01:09;5.93;;;3.80;;
22705;SDS011;11520;51.198;4.468;2023-06-05T07:03:35;5.68;;;3.42;;
22705;SDS011;11520;51.198;4.468;2023-06-05T07:06:01;7.72;;;3.65;;
22705;SDS011;11520;51.198;4.468;2023-06-05T07:08:28;6.88;;;4.13;;
22705;SDS011;11520;51.198;4.468;2023-06-05T07:10:57;4.82;;;3.92;;
22705;SDS011;11520;51.198;4.468;2023-06-05T07:13:22;4.25;;;3.78;;
22705;SDS011;11520;51.198;4.468;2023-06-05T07:15:48;7.63;;;4.03;;
22705;SDS011;11520;51.198;4.468;2023-06-05T07:18:17;8.32;;;4.18;;
22705;SDS011;11520;51.198;4.468;2023-06-05T07:20:43;6.75;;;4.10;;
22705;SDS011;11520;51.198;4.468;2023-06-05T07:23:14;6.32;;;4.10;;
22705;SDS011;11520;51.198;4.468;2023-06-05T07:25:40;10.63;;;4.07;;
22705;SDS011;11520;51.198;4.468;2023-06-05T07:28:08;7.20;;;4.13;;
22705;SDS011;11520;51.198;4.468;2023-06-05T07:30:36;5.55;;;3.80;;
22705;SDS011;11520;51.198;4.468;2023-06-05T07:33:08;5.68;;;3.90;;
22705;SDS011;11520;51.198;4.468;2023-06-05T07:35:34;7.00;;;3.90;;
22705;SDS011;11520;51.198;4.468;2023-06-05T07:38:00;5.15;;;3.78;;
22705;SDS011;11520;51.198;4.468;2023-06-05T07:40:25;6.07;;;4.10;;
22705;SDS011;11520;51.198;4.468;2023-06-05T07:42:52;8.57;;;4.88;;
22705;SDS011;11520;51.198;4.468;2023-06-05T07:45:19;5.90;;;4.05;;
22705;SDS011;11520;51.198;4.468;2023-06-05T07:47:46;12.32;;;4.15;;
22705;SDS011;11520;51.198;4.468;2023-06-05T07:50:11;6.43;;;4.10;;
22705;SDS011;11520;51.198;4.468;2023-06-05T07:52:40;5.40;;;4.20;;
22705;SDS011;11520;51.198;4.468;2023-06-05T07:55:05;7.60;;;4.47;;
22705;SDS011;11520;51.198;4.468;2023-06-05T07:57:33;7.53;;;4.18;;
22705;SDS011;11520;51.198;4.468;2023-06-05T07:59:59;6.90;;;4.88;;
22705;SDS011;11520;51.198;4.468;2023-06-05T08:02:26;6.55;;;4.82;;
22705;SDS011;11520;51.198;4.468;2023-06-05T08:04:51;5.15;;;4.50;;
22705;SDS011;11520;51.198;4.468;2023-06-05T08:07:17;9.13;;;4.75;;
22705;SDS011;11520;51.198;4.468;2023-06-05T08:09:43;6.57;;;4.78;;
22705;SDS011;11520;51.198;4.468;2023-06-05T08:12:08;5.18;;;4.35;;
22705;SDS011;11520;51.198;4.468;2023-06-05T08:14:34;8.48;;;4.65;;
22705;SDS011;11520;51.198;4.468;2023-06-05T08:17:00;7.57;;;4.60;;
22705;SDS011;11520;51.198;4.468;2023-06-05T08:19:28;7.28;;;4.50;;
22705;SDS011;11520;51.198;4.468;2023-06-05T08:21:55;7.38;;;4.90;;
22705;SDS011;11520;51.198;4.468;2023-06-05T08:24:21;7.22;;;4.75;;
22705;SDS011;11520;51.198;4.468;2023-06-05T08:26:47;10.57;;;5.05;;
22705;SDS011;11520;51.198;4.468;2023-06-05T08:29:12;6.50;;;4.70;;
22705;SDS011;11520;51.198;4.468;2023-06-05T08:31:38;5.22;;;4.30;;
22705;SDS011;11520;51.198;4.468;2023-06-05T08:34:04;6.13;;;4.57;;
22705;SDS011;11520;51.198;4.468;2023-06-05T08:36:31;7.65;;;4.18;;
22705;SDS011;11520;51.198;4.468;2023-06-05T08:38:58;7.07;;;4.82;;
22705;SDS011;11520;51.198;4.468;2023-06-05T08:41:23;4.25;;;3.53;;
22705;SDS011;11520;51.198;4.468;2023-06-05T08:43:51;8.07;;;4.45;;
22705;SDS011;11520;51.198;4.468;2023-06-05T08:46:17;6.82;;;4.43;;
22705;SDS011;11520;51.198;4.468;2023-06-05T08:48:45;7.05;;;4.70;;
22705;SDS011;11520;51.198;4.468;2023-06-05T08:51:12;5.13;;;3.90;;
22705;SDS011;11520;51.198;4.468;2023-06-05T08:54:05;8.13;;;4.80;;
22705;SDS011;11520;51.198;4.468;2023-06-05T08:56:33;7.97;;;4.70;;
22705;SDS011;11520;51.198;4.468;2023-06-05T08:59:03;9.98;;;4.40;;
22705;SDS011;11520;51.198;4.468;2023-06-05T09:01:30;11.43;;;4.50;;
22705;SDS011;11520;51.198;4.468;2023-06-05T09:03:57;8.18;;;4.65;;
22705;SDS011;11520;51.198;4.468;2023-06-05T09:06:23;5.80;;;4.32;;
22705;SDS011;11520;51.198;4.468;2023-06-05T09:08:48;6.95;;;4.05;;
22705;SDS011;11520;51.198;4.468;2023-06-05T09:11:21;10.75;;;4.25;;
22705;SDS011;11520;51.198;4.468;2023-06-05T09:13:47;5.93;;;4.13;;
22705;SDS011;11520;51.198;4.468;2023-06-05T09:16:13;5.57;;;4.20;;
22705;SDS011;11520;51.198;4.468;2023-06-05T09:18:55;7.60;;;3.88;;
22705;SDS011;11520;51.198;4.468;2023-06-05T09:21:22;5.68;;;4.10;;
22705;SDS011;11520;51.198;4.468;2023-06-05T09:27:21;6.68;;;4.30;;
22705;SDS011;11520;51.198;4.468;2023-06-05T09:29:34;7.03;;;4.35;;
22705;SDS011;11520;51.198;4.468;2023-06-05T09:32:15;8.38;;;4.28;;
22705;SDS011;11520;51.198;4.468;2023-06-05T09:34:47;8.63;;;4.40;;
22705;SDS011;11520;51.198;4.468;2023-06-05T09:37:31;10.15;;;4.53;;
22705;SDS011;11520;51.198;4.468;2023-06-05T09:40:01;12.02;;;4.30;;
22705;SDS011;11520;51.198;4.468;2023-06-05T09:42:33;7.75;;;3.65;;
22705;SDS011;11520;51.198;4.468;2023-06-05T09:45:00;9.88;;;4.75;;
22705;SDS011;11520;51.198;4.468;2023-06-05T09:47:27;7.22;;;3.50;;
22705;SDS011;11520;51.198;4.468;2023-06-05T09:49:54;7.45;;;4.10;;
22705;SDS011;11520;51.198;4.468;2023-06-05T09:52:20;6.68;;;3.60;;
22705;SDS011;11520;51.198;4.468;2023-06-05T09:54:46;6.65;;;3.67;;
22705;SDS011;11520;51.198;4.468;2023-06-05T09:57:12;9.15;;;4.10;;
22705;SDS011;11520;51.198;4.468;2023-06-05T09:59:52;8.93;;;4.53;;
22705;SDS011;11520;51.198;4.468;2023-06-05T10:02:20;7.28;;;3.78;;
22705;SDS011;11520;51.198;4.468;2023-06-05T10:04:51;5.90;;;3.38;;
22705;SDS011;11520;51.198;4.468;2023-06-05T10:07:21;7.03;;;3.83;;
22705;SDS011;11520;51.198;4.468;2023-06-05T10:09:48;6.50;;;3.72;;
22705;SDS011;11520;51.198;4.468;2023-06-05T10:12:15;7.00;;;3.60;;
22705;SDS011;11520;51.198;4.468;2023-06-05T10:14:42;8.05;;;3.92;;
22705;SDS011;11520;51.198;4.468;2023-06-05T10:17:09;7.03;;;3.90;;
22705;SDS011;11520;51.198;4.468;2023-06-05T10:19:36;4.45;;;3.70;;
22705;SDS011;11520;51.198;4.468;2023-06-05T10:22:09;7.30;;;3.80;;
22705;SDS011;11520;51.198;4.468;2023-06-05T10:24:36;5.43;;;3.47;;
22705;SDS011;11520;51.198;4.468;2023-06-05T10:29:49;12.75;;;4.05;;
22705;SDS011;11520;51.198;4.468;2023-06-05T10:32:51;8.13;;;3.42;;
22705;SDS011;11520;51.198;4.468;2023-06-05T10:40:53;6.25;;;3.75;;
22705;SDS011;11520;51.198;4.468;2023-06-05T10:45:56;7.15;;;3.60;;
22705;SDS011;11520;51.198;4.468;2023-06-05T10:49:11;10.30;;;3.45;;
22705;SDS011;11520;51.198;4.468;2023-06-05T10:54:14;9.60;;;3.90;;
22705;SDS011;11520;51.198;4.468;2023-06-05T10:59:17;7.60;;;4.30;;
22705;SDS011;11520;51.198;4.468;2023-06-05T11:02:20;6.72;;;3.53;;
22705;SDS011;11520;51.198;4.468;2023-06-05T11:07:25;7.27;;;3.87;;
22705;SDS011;11520;51.198;4.468;2023-06-05T11:15:03;7.35;;;4.30;;
22705;SDS011;11520;51.198;4.468;2023-06-05T11:17:30;7.38;;;3.63;;
22705;SDS011;11520;51.198;4.468;2023-06-05T11:19:56;6.30;;;3.33;;
22705;SDS011;11520;51.198;4.468;2023-06-05T11:22:22;7.97;;;4.20;;
22705;SDS011;11520;51.198;4.468;2023-06-05T11:27:47;8.77;;;3.83;;
22705;SDS011;11520;51.198;4.468;2023-06-05T11:30:15;7.35;;;3.88;;
22705;SDS011;11520;51.198;4.468;2023-06-05T11:32:43;4.82;;;3.45;;
22705;SDS011;11520;51.198;4.468;2023-06-05T11:35:09;9.68;;;4.18;;
22705;SDS011;11520;51.198;4.468;2023-06-05T11:37:35;6.38;;;3.55;;
22705;SDS011;11520;51.198;4.468;2023-06-05T11:40:05;7.60;;;4.47;;
22705;SDS011;11520;51.198;4.468;2023-06-05T11:42:38;6.10;;;3.70;;
22705;SDS011;11520;51.198;4.468;2023-06-05T11:45:11;6.85;;;3.78;;
22705;SDS011;11520;51.198;4.468;2023-06-05T11:47:37;10.35;;;4.63;;
22705;SDS011;11520;51.198;4.468;2023-06-05T11:50:21;9.02;;;4.18;;
22705;SDS011;11520;51.198;4.468;2023-06-05T11:52:51;6.22;;;4.88;;
22705;SDS011;11520;51.198;4.468;2023-06-05T11:55:17;7.70;;;4.80;;
22705;SDS011;11520;51.198;4.468;2023-06-05T11:57:47;10.50;;;5.30;;
22705;SDS011;11520;51.198;4.468;2023-06-05T12:00:13;8.27;;;4.15;;
22705;SDS011;11520;51.198;4.468;2023-06-05T12:02:47;9.57;;;5.85;;
22705;SDS011;11520;51.198;4.468;2023-06-05T12:05:14;9.30;;;4.82;;
22705;SDS011;11520;51.198;4.468;2023-06-05T12:07:39;10.75;;;5.50;;
22705;SDS011;11520;51.198;4.468;2023-06-05T12:10:07;8.95;;;4.43;;
22705;SDS011;11520;51.198;4.468;2023-06-05T12:12:50;7.07;;;4.90;;
22705;SDS011;11520;51.198;4.468;2023-06-05T12:15:17;11.00;;;5.10;;
22705;SDS011;11520;51.198;4.468;2023-06-05T12:17:52;15.13;;;6.13;;
22705;SDS011;11520;51.198;4.468;2023-06-05T12:20:20;11.68;;;5.85;;
22705;SDS011;11520;51.198;4.468;2023-06-05T12:22:48;11.95;;;5.18;;
22705;SDS011;11520;51.198;4.468;2023-06-05T12:25:17;10.10;;;4.72;;
22705;SDS011;11520;51.198;4.468;2023-06-05T12:27:44;8.13;;;5.05;;
22705;SDS011;11520;51.198;4.468;2023-06-05T12:30:15;7.03;;;5.15;;
22705;SDS011;11520;51.198;4.468;2023-06-05T12:32:41;9.38;;;6.32;;
22705;SDS011;11520;51.198;4.468;2023-06-05T12:35:23;14.07;;;4.78;;
22705;SDS011;11520;51.198;4.468;2023-06-05T12:38:09;6.70;;;4.35;;
22705;SDS011;11520;51.198;4.468;2023-06-05T12:40:36;8.65;;;5.10;;
22705;SDS011;11520;51.198;4.468;2023-06-05T12:43:01;12.77;;;5.38;;
22705;SDS011;11520;51.198;4.468;2023-06-05T12:45:27;8.95;;;5.80;;
22705;SDS011;11520;51.198;4.468;2023-06-05T12:47:55;11.48;;;5.55;;
22705;SDS011;11520;51.198;4.468;2023-06-05T12:50:21;7.60;;;5.40;;
22705;SDS011;11520;51.198;4.468;2023-06-05T12:52:46;7.43;;;4.93;;
22705;SDS011;11520;51.198;4.468;2023-06-05T12:55:12;6.38;;;4.78;;
22705;SDS011;11520;51.198;4.468;2023-06-05T12:57:38;25.92;;;6.63;;
22705;SDS011;11520;51.198;4.468;2023-06-05T13:00:05;11.10;;;5.65;;
22705;SDS011;11520;51.198;4.468;2023-06-05T13:02:43;14.45;;;5.78;;
22705;SDS011;11520;51.198;4.468;2023-06-05T13:05:10;8.98;;;6.32;;
22705;SDS011;11520;51.198;4.468;2023-06-05T13:07:37;7.80;;;5.10;;
22705;SDS011;11520;51.198;4.468;2023-06-05T13:10:05;7.85;;;5.57;;
22705;SDS011;11520;51.198;4.468;2023-06-05T13:12:31;15.60;;;7.18;;
22705;SDS011;11520;51.198;4.468;2023-06-05T13:14:56;9.02;;;5.82;;
22705;SDS011;11520;51.198;4.468;2023-06-05T13:17:25;8.27;;;5.80;;
22705;SDS011;11520;51.198;4.468;2023-06-05T13:19:50;7.22;;;5.15;;
22705;SDS011;11520;51.198;4.468;2023-06-05T13:22:19;10.18;;;5.53;;
22705;SDS011;11520;51.198;4.468;2023-06-05T13:24:47;12.65;;;5.32;;
22705;SDS011;11520;51.198;4.468;2023-06-05T13:27:14;10.52;;;5.35;;
22705;SDS011;11520;51.198;4.468;2023-06-05T13:29:41;5.80;;;5.03;;
22705;SDS011;11520;51.198;4.468;2023-06-05T13:32:07;7.72;;;4.55;;
22705;SDS011;11520;51.198;4.468;2023-06-05T13:34:33;13.57;;;5.03;;
22705;SDS011;11520;51.198;4.468;2023-06-05T13:37:00;9.35;;;5.72;;
22705;SDS011;11520;51.198;4.468;2023-06-05T13:39:25;9.45;;;5.18;;
22705;SDS011;11520;51.198;4.468;2023-06-05T13:41:51;10.68;;;4.97;;
22705;SDS011;11520;51.198;4.468;2023-06-05T13:44:16;7.63;;;5.20;;
22705;SDS011;11520;51.198;4.468;2023-06-05T13:46:43;9.30;;;5.45;;
22705;SDS011;11520;51.198;4.468;2023-06-05T13:49:09;14.88;;;4.85;;
22705;SDS011;11520;51.198;4.468;2023-06-05T13:51:38;7.47;;;4.38;;
22705;SDS011;11520;51.198;4.468;2023-06-05T13:54:04;8.90;;;4.93;;
22705;SDS011;11520;51.198;4.468;2023-06-05T13:56:30;8.65;;;4.70;;
22705;SDS011;11520;51.198;4.468;2023-06-05T13:58:56;9.13;;;4.95;;
22705;SDS011;11520;51.198;4.468;2023-06-05T14:01:22;8.73;;;4.80;;
22705;SDS011;11520;51.198;4.468;2023-06-05T14:03:48;10.27;;;4.50;;
22705;SDS011;11520;51.198;4.468;2023-06-05T14:06:16;8.50;;;5.03;;
22705;SDS011;11520;51.198;4.468;2023-06-05T14:08:43;8.43;;;4.50;;
22705;SDS011;11520;51.198;4.468;2023-06-05T14:11:10;8.95;;;5.15;;
22705;SDS011;11520;51.198;4.468;2023-06-05T14:13:36;9.32;;;5.30;;
22705;SDS011;11520;51.198;4.468;2023-06-05T14:16:03;9.68;;;5.00;;
22705;SDS011;11520;51.198;4.468;2023-06-05T14:18:29;14.75;;;5.43;;
22705;SDS011;11520;51.198;4.468;2023-06-05T14:20:55;9.38;;;5.25;;
22705;SDS011;11520;51.198;4.468;2023-06-05T14:23:23;8.18;;;5.45;;
22705;SDS011;11520;51.198;4.468;2023-06-05T14:25:49;10.23;;;5.03;;
22705;SDS011;11520;51.198;4.468;2023-06-05T14:28:16;9.50;;;5.18;;
22705;SDS011;11520;51.198;4.468;2023-06-05T14:30:42;11.30;;;4.82;;
22705;SDS011;11520;51.198;4.468;2023-06-05T14:33:09;13.05;;;5.13;;
22705;SDS011;11520;51.198;4.468;2023-06-05T14:35:45;8.10;;;4.13;;
22705;SDS011;11520;51.198;4.468;2023-06-05T14:38:11;10.15;;;4.03;;
22705;SDS011;11520;51.198;4.468;2023-06-05T14:40:39;9.13;;;4.68;;
22705;SDS011;11520;51.198;4.468;2023-06-05T14:43:09;8.38;;;4.85;;
22705;SDS011;11520;51.198;4.468;2023-06-05T14:45:35;8.90;;;5.13;;
22705;SDS011;11520;51.198;4.468;2023-06-05T14:48:01;12.10;;;6.75;;
22705;SDS011;11520;51.198;4.468;2023-06-05T14:50:27;9.82;;;5.15;;
22705;SDS011;11520;51.198;4.468;2023-06-05T14:52:54;10.93;;;5.38;;
22705;SDS011;11520;51.198;4.468;2023-06-05T14:55:20;9.25;;;5.90;;
22705;SDS011;11520;51.198;4.468;2023-06-05T14:57:46;8.93;;;5.07;;
22705;SDS011;11520;51.198;4.468;2023-06-05T15:00:11;7.32;;;5.05;;
22705;SDS011;11520;51.198;4.468;2023-06-05T15:02:39;8.50;;;5.35;;
22705;SDS011;11520;51.198;4.468;2023-06-05T15:05:06;9.10;;;5.38;;
22705;SDS011;11520;51.198;4.468;2023-06-05T15:07:36;7.30;;;5.03;;
22705;SDS011;11520;51.198;4.468;2023-06-05T15:10:08;6.05;;;4.50;;
22705;SDS011;11520;51.198;4.468;2023-06-05T15:12:37;9.35;;;4.97;;
22705;SDS011;11520;51.198;4.468;2023-06-05T15:15:04;18.15;;;5.63;;
22705;SDS011;11520;51.198;4.468;2023-06-05T15:17:31;5.88;;;4.78;;
22705;SDS011;11520;51.198;4.468;2023-06-05T15:19:57;6.22;;;4.53;;
22705;SDS011;11520;51.198;4.468;2023-06-05T15:22:25;6.57;;;3.90;;
22705;SDS011;11520;51.198;4.468;2023-06-05T15:24:51;7.55;;;3.63;;